Kirbyville, Texas
Current Conditions -  °F | °C
As of 10:35 AM on Saturday 22 Nov 2014 (Local Time) from KJAS Reporting Station
Clear Clear  
Wind Chill: 66°   Ceiling: Unl
Heat Index: 66°   Visibility: 10mi
Dew Point: 58°   Wind: 9mph
Humidity: 76%   Direction: 110°ESE
Pressure: 30.12"   Gusts: NA
Location:  30.66°N, 93.89°W
Report Text: KJAS 221635Z AUTO 11008KT 10SM CLR 19/15 A3012 RMK AO2 T01880145
Loading
Personal Weather Stations






























Interactive Weather Map New forecast layout! Learn more

10-Day Weather Forecast

Advertisements
Track Severe Weather on mobile